createdAt,value
2019-03-22T02:43:37.875Z,66.57
2019-03-22T06:07:24.944Z,171.43
2019-03-22T06:09:55.618Z,214.37
2019-03-22T06:12:26.201Z,221.30
2019-03-22T06:14:56.686Z,101.57
2019-03-22T06:17:27.154Z,246.90
2019-03-22T06:19:57.782Z,130.07
2019-03-22T06:22:31.064Z,134.87
2019-03-22T06:25:01.649Z,170.67
2019-03-22T06:27:32.148Z,108.50
2019-03-22T06:30:02.823Z,195.33
2019-03-22T06:32:33.364Z,169.90
2019-03-22T06:35:04.066Z,143.50
2019-03-22T06:37:34.544Z,109.87
2019-03-22T06:40:05.394Z,84.80
2019-03-22T06:42:35.858Z,75.10
2019-03-22T06:45:06.494Z,145.70
2019-03-22T06:47:36.980Z,106.80
2019-03-22T06:50:07.528Z,99.87
2019-03-22T06:52:38.069Z,106.83
2019-03-22T06:55:08.865Z,79.20
2019-03-22T06:57:39.441Z,78.87
2019-03-22T07:00:09.430Z,86.53
2019-03-22T07:02:39.989Z,156.63
2019-03-22T07:05:13.370Z,105.30
2019-03-22T07:07:42.691Z,95.13
2019-03-22T07:10:13.315Z,74.50
2019-03-22T07:12:43.998Z,91.63
2019-03-22T07:15:14.483Z,99.70
2019-03-22T07:17:45.189Z,91.33
2019-03-22T07:20:15.722Z,135.57
2019-03-22T07:22:46.346Z,77.03
2019-03-22T07:25:17.054Z,91.57
2019-03-22T07:27:47.532Z,57.03
2019-03-22T07:30:19.298Z,76.10
2019-03-22T07:32:49.957Z,66.33
2019-03-22T07:35:20.436Z,67.03
2019-03-22T07:37:51.082Z,133.70
2019-03-22T07:40:21.685Z,79.93
2019-03-22T07:42:52.264Z,72.03
2019-03-22T07:45:22.826Z,86.27
2019-03-22T07:47:55.816Z,76.07
2019-03-22T07:50:25.458Z,73.77
2019-03-22T07:52:56.200Z,77.60
2019-03-22T07:55:26.720Z,95.13
2019-03-22T07:57:57.255Z,61.33
2019-03-22T08:00:31.012Z,51.50
2019-03-22T08:03:00.190Z,65.93
2019-03-22T08:05:30.675Z,58.13
2019-03-22T08:08:01.365Z,80.07
2019-03-22T08:10:31.853Z,63.77
2019-03-22T08:13:02.395Z,59.93
2019-03-22T08:15:33.743Z,52.17
2019-03-22T08:18:04.429Z,58.17
2019-03-22T08:20:34.965Z,51.27
2019-03-22T08:23:17.739Z,45.00
2019-03-22T08:25:48.339Z,48.20
2019-03-22T08:28:18.932Z,43.67
2019-03-22T08:30:49.422Z,48.83
2019-03-22T08:33:20.045Z,44.53
2019-03-22T08:35:50.538Z,44.47
2019-03-22T08:38:21.135Z,41.80
2019-03-22T08:40:51.694Z,44.10
2019-03-22T08:43:22.258Z,40.80
2019-03-22T08:45:52.059Z,38.23
2019-03-22T08:48:22.579Z,38.60
2019-03-22T08:50:53.213Z,36.33
2019-03-22T08:53:23.859Z,37.20
2019-03-22T08:55:54.447Z,33.43
2019-03-22T08:58:24.930Z,33.00
2019-03-22T09:00:57.841Z,29.50
2019-03-22T09:03:27.007Z,33.20
2019-03-22T09:05:57.514Z,33.23
2019-03-22T09:08:28.075Z,34.60
2019-03-22T09:10:58.642Z,37.97
2019-03-22T09:13:29.283Z,39.23
2019-03-22T09:15:59.813Z,37.40
2019-03-22T09:18:30.460Z,37.80
2019-03-22T09:21:01.031Z,56.90
2019-03-22T09:23:31.606Z,43.07
2019-03-22T09:26:02.170Z,46.73
2019-03-22T09:28:32.823Z,39.03
2019-03-22T09:31:10.148Z,41.53
2019-03-22T09:33:35.610Z,41.07
2019-03-22T09:36:06.251Z,45.80
2019-03-22T09:38:36.770Z,44.60
2019-03-22T09:41:07.322Z,39.70
2019-03-22T09:43:37.897Z,45.43
2019-03-22T09:46:08.461Z,40.00
2019-03-22T09:48:39.099Z,40.03
2019-03-22T09:51:09.589Z,39.00
2019-03-22T09:53:40.187Z,40.47
2019-03-22T09:56:10.830Z,39.87
2019-03-22T09:58:41.335Z,41.07
2019-03-22T10:01:23.197Z,46.23
2019-03-22T10:03:44.159Z,55.00
2019-03-22T10:06:14.734Z,42.07
2019-03-22T10:08:45.244Z,44.50
2019-03-22T10:11:16.344Z,44.53
2019-03-22T10:13:48.379Z,38.70
2019-03-22T10:16:19.082Z,43.70
2019-03-22T10:19:00.947Z,55.20
2019-03-22T10:21:31.577Z,49.20
2019-03-22T10:24:03.987Z,47.17
2019-03-22T10:26:34.482Z,44.63
2019-03-22T10:29:06.874Z,52.10
2019-03-22T10:31:37.927Z,42.47
2019-03-22T10:34:08.667Z,55.53
2019-03-22T10:36:39.159Z,46.97
2019-03-22T10:39:10.516Z,48.37
2019-03-22T10:41:41.052Z,43.10
2019-03-22T10:44:11.666Z,51.43
2019-03-22T10:46:42.394Z,45.83
2019-03-22T10:49:13.053Z,47.67
2019-03-22T10:51:56.027Z,52.87
2019-03-22T10:54:15.778Z,51.93
2019-03-22T10:56:46.361Z,58.10
2019-03-22T10:59:17.006Z,52.63
2019-03-22T11:02:02.289Z,56.27
2019-03-22T11:04:19.765Z,57.93
2019-03-22T11:06:50.338Z,47.00
2019-03-22T11:09:20.827Z,61.90
2019-03-22T11:11:51.408Z,50.83
2019-03-22T11:14:21.884Z,54.40
2019-03-22T11:16:52.365Z,60.23
2019-03-22T11:19:22.957Z,53.47
2019-03-22T11:21:53.517Z,52.10
2019-03-22T11:24:24.143Z,46.30
2019-03-22T11:26:54.717Z,45.83
2019-03-22T11:29:25.381Z,46.77
2019-03-22T11:31:55.927Z,51.67
2019-03-22T11:34:26.420Z,44.83
2019-03-22T11:36:56.964Z,48.40
2019-03-22T11:39:27.534Z,51.57
2019-03-22T11:41:57.995Z,45.77
2019-03-22T11:44:28.559Z,44.10
2019-03-22T11:46:59.134Z,44.20
2019-03-22T11:49:29.786Z,44.03
2019-03-22T11:52:00.455Z,50.33
2019-03-22T11:54:31.036Z,41.80
2019-03-22T11:57:01.586Z,44.60
2019-03-22T11:59:32.134Z,40.20
2019-03-22T12:02:02.684Z,46.67
2019-03-22T12:04:33.191Z,36.30
2019-03-22T12:07:03.698Z,37.37
2019-03-22T12:09:34.205Z,37.70
2019-03-22T12:12:04.727Z,44.87
2019-03-22T12:14:35.329Z,65.27
2019-03-22T12:17:05.869Z,39.43
2019-03-22T12:19:36.504Z,38.63
2019-03-22T12:22:07.062Z,30.57
2019-03-22T12:24:37.607Z,40.47
2019-03-22T12:27:08.227Z,40.20
2019-03-22T12:29:38.705Z,40.30
2019-03-22T12:32:09.171Z,38.93
2019-03-22T12:34:39.647Z,40.00
2019-03-22T12:37:10.238Z,41.10
2019-03-22T12:39:41.872Z,39.60
2019-03-22T12:42:12.744Z,34.67
2019-03-22T12:44:43.227Z,38.57
2019-03-22T12:47:13.783Z,31.10
2019-03-22T12:49:44.268Z,38.00
2019-03-22T12:52:14.807Z,38.73
2019-03-22T12:54:45.353Z,118.20
2019-03-22T12:57:15.927Z,33.40
2019-03-22T12:59:46.702Z,39.63
2019-03-22T13:02:17.263Z,37.10
2019-03-22T13:04:47.756Z,38.63
2019-03-22T13:07:18.243Z,41.10
2019-03-22T13:09:48.801Z,37.67
2019-03-22T13:12:19.416Z,38.70
2019-03-22T13:14:49.905Z,40.70
2019-03-22T13:17:20.732Z,37.20
2019-03-22T13:19:51.460Z,39.27
2019-03-22T13:22:21.909Z,33.90
2019-03-22T13:24:52.396Z,37.93
2019-03-22T13:27:22.869Z,42.07
2019-03-22T13:29:53.358Z,42.07
2019-03-22T13:32:23.825Z,44.10
2019-03-22T13:34:54.298Z,41.90
2019-03-22T13:37:24.834Z,45.23
2019-03-22T13:39:55.308Z,41.03
2019-03-22T13:42:25.744Z,38.83
2019-03-22T13:44:56.258Z,42.10
2019-03-22T13:47:26.698Z,37.63
2019-03-22T13:49:57.260Z,45.33
2019-03-22T13:52:27.849Z,38.27
2019-03-22T13:54:58.324Z,36.43
2019-03-22T13:57:28.770Z,37.40
2019-03-22T13:59:59.345Z,55.67
2019-03-22T14:02:29.825Z,37.50
2019-03-22T14:05:00.358Z,39.40
2019-03-22T14:07:30.816Z,33.80
2019-03-22T14:10:01.302Z,35.30
2019-03-22T14:12:37.010Z,35.90
2019-03-22T14:15:04.186Z,35.90
2019-03-22T14:17:34.627Z,33.53
2019-03-22T14:20:11.150Z,35.50
2019-03-22T14:22:37.350Z,33.43
2019-03-22T14:25:07.916Z,34.27
2019-03-22T14:27:38.360Z,31.70
2019-03-22T14:30:09.582Z,30.00
2019-03-22T14:32:40.114Z,27.83
2019-03-22T14:35:10.627Z,25.23
2019-03-22T14:37:41.146Z,27.03
2019-03-22T14:40:15.563Z,29.37
2019-03-22T14:42:43.872Z,24.50
2019-03-22T14:45:14.407Z,24.07
2019-03-22T14:47:44.858Z,25.87
2019-03-22T14:50:15.401Z,26.43
2019-03-22T14:52:45.851Z,31.07
2019-03-22T14:55:16.350Z,24.90
2019-03-22T14:57:49.925Z,23.87
2019-03-22T15:00:19.044Z,25.40
2019-03-22T15:02:49.482Z,21.80
2019-03-22T15:05:20.015Z,25.13
2019-03-22T15:07:50.500Z,21.00
2019-03-22T15:10:21.032Z,19.80
2019-03-22T15:12:51.758Z,24.10
2019-03-22T15:15:48.466Z,22.33
2019-03-22T15:18:34.487Z,24.10
2019-03-22T15:21:31.108Z,22.10
2019-03-22T15:24:26.034Z,22.60
2019-03-22T15:27:14.618Z,26.17
2019-03-22T15:30:03.607Z,24.97
2019-03-22T15:32:59.853Z,20.43
2019-03-22T15:35:48.168Z,22.47
2019-03-22T15:38:37.709Z,26.50
2019-03-22T15:41:08.384Z,21.90
2019-03-22T15:43:38.884Z,34.97
2019-03-22T15:46:09.415Z,22.73
2019-03-22T15:48:52.491Z,25.10
2019-03-22T15:51:22.978Z,24.73
2019-03-22T15:53:53.698Z,22.03
2019-03-22T15:56:24.180Z,21.47
2019-03-22T15:58:55.331Z,23.63
2019-03-22T16:01:25.907Z,25.80
2019-03-22T16:03:58.171Z,41.73
2019-03-22T16:06:29.656Z,24.40
2019-03-22T16:09:00.882Z,19.13
2019-03-22T16:11:32.699Z,25.43
2019-03-22T16:14:04.189Z,25.30
2019-03-22T16:16:35.058Z,25.33
2019-03-22T16:19:05.927Z,24.13
2019-03-22T16:21:36.442Z,22.17
2019-03-22T16:24:07.391Z,21.93
2019-03-22T16:26:38.231Z,21.33
2019-03-22T16:29:08.664Z,20.33
2019-03-22T16:31:39.249Z,30.43
2019-03-22T16:34:09.772Z,24.43
2019-03-22T16:36:40.277Z,23.00
2019-03-22T16:39:14.716Z,24.70
2019-03-22T16:41:45.396Z,24.73
2019-03-22T16:44:16.448Z,28.60
2019-03-22T16:46:46.946Z,30.03
2019-03-22T16:49:17.400Z,25.07
2019-03-22T16:51:47.893Z,31.17
2019-03-22T16:54:18.334Z,28.67
2019-03-22T16:56:48.847Z,31.77
2019-03-22T16:59:19.341Z,33.30
2019-03-22T17:01:49.859Z,33.30
2019-03-22T17:04:20.333Z,27.93
2019-03-22T17:06:50.911Z,33.43
2019-03-22T17:09:21.365Z,31.73
2019-03-22T17:11:52.091Z,35.83
2019-03-22T17:14:22.531Z,34.77
2019-03-22T17:16:53.023Z,30.80
2019-03-22T17:19:23.471Z,31.67
2019-03-22T17:21:53.950Z,32.10
2019-03-22T17:24:24.382Z,35.10
2019-03-22T17:26:54.879Z,30.30
2019-03-22T17:29:25.319Z,39.80
2019-03-22T17:31:55.925Z,31.43
2019-03-22T17:34:26.444Z,31.67
2019-03-22T17:36:57.006Z,39.60
2019-03-22T17:39:27.467Z,30.67
2019-03-22T17:41:58.005Z,31.60
2019-03-22T17:44:28.528Z,31.37
2019-03-22T17:46:59.035Z,34.50
2019-03-22T17:49:29.572Z,42.10
2019-03-22T17:52:00.157Z,33.10
2019-03-22T17:54:30.612Z,38.43
2019-03-22T17:57:01.519Z,39.03
2019-03-22T17:59:32.049Z,34.93
2019-03-22T18:02:03.482Z,37.17
2019-03-22T18:04:33.940Z,38.03
2019-03-22T18:07:04.473Z,40.27
2019-03-22T18:09:34.916Z,36.93
2019-03-22T18:12:05.412Z,38.47
2019-03-22T18:14:35.924Z,38.90
2019-03-22T18:17:06.693Z,31.80
2019-03-22T18:19:37.144Z,34.37
2019-03-22T18:22:07.685Z,39.10
2019-03-22T18:24:38.157Z,37.50
2019-03-22T18:27:08.714Z,37.23
2019-03-22T18:29:39.239Z,35.63
2019-03-22T18:32:09.690Z,29.63
2019-03-22T18:34:40.135Z,47.37
2019-03-22T18:37:10.650Z,39.20
2019-03-22T18:39:41.116Z,29.97
2019-03-22T18:42:11.677Z,39.43
2019-03-22T18:44:42.289Z,39.97
2019-03-22T18:47:12.750Z,33.90
2019-03-22T18:49:43.268Z,39.70
2019-03-22T18:52:13.760Z,43.40
2019-03-22T18:54:44.265Z,36.90
2019-03-22T18:57:14.796Z,33.50
2019-03-22T18:59:45.309Z,45.17
2019-03-22T19:02:15.814Z,42.17
2019-03-22T19:04:46.238Z,40.50
2019-03-22T19:07:16.722Z,39.00
2019-03-22T19:09:47.280Z,43.63
2019-03-22T19:12:17.714Z,42.10
2019-03-22T19:14:48.267Z,40.70
2019-03-22T19:17:18.715Z,38.67
2019-03-22T19:19:49.175Z,38.57
2019-03-22T19:22:19.595Z,40.50
2019-03-22T19:24:50.162Z,46.77
2019-03-22T19:27:20.757Z,39.00
2019-03-22T19:29:51.239Z,44.20
2019-03-22T19:32:21.702Z,41.50
2019-03-22T19:34:54.564Z,46.63
2019-03-22T19:37:24.304Z,42.60
2019-03-22T19:39:54.762Z,48.53
2019-03-22T19:42:25.224Z,47.60
2019-03-22T19:44:55.803Z,47.67
2019-03-22T19:47:26.252Z,49.40
2019-03-22T19:49:56.714Z,51.33
2019-03-22T19:52:27.240Z,50.63
2019-03-22T19:54:57.718Z,50.77
2019-03-22T19:57:28.182Z,52.57
2019-03-22T19:59:58.662Z,47.93
2019-03-22T20:02:29.129Z,51.37
2019-03-22T20:05:04.587Z,55.30
2019-03-22T20:07:31.746Z,52.27
2019-03-22T20:10:02.559Z,53.23
2019-03-22T20:12:33.145Z,58.57
2019-03-22T20:15:03.624Z,50.57
2019-03-22T20:17:34.850Z,60.50
2019-03-22T20:20:06.707Z,54.73
2019-03-22T20:22:37.823Z,49.53
2019-03-22T20:25:08.508Z,49.00
2019-03-22T20:27:39.127Z,54.37
2019-03-22T20:30:09.699Z,56.63
2019-03-22T20:32:40.460Z,49.13
2019-03-22T20:35:16.279Z,52.47
2019-03-22T20:37:43.133Z,54.80
2019-03-22T20:40:13.676Z,52.90
2019-03-22T20:42:44.151Z,63.83
2019-03-22T20:45:23.541Z,56.80
2019-03-22T20:47:46.755Z,55.57
2019-03-22T20:50:17.240Z,55.07
2019-03-22T20:52:47.704Z,55.43
2019-03-22T20:55:18.160Z,54.13
2019-03-22T20:57:48.621Z,53.90
2019-03-22T21:00:19.166Z,53.60
2019-03-22T21:02:49.605Z,61.33
2019-03-22T21:05:26.806Z,52.00
2019-03-22T21:07:52.325Z,60.43
2019-03-22T21:10:22.774Z,62.20
2019-03-22T21:12:54.086Z,58.07
2019-03-22T21:15:25.001Z,53.43
2019-03-22T21:17:55.463Z,59.60
2019-03-22T21:20:25.935Z,61.47
2019-03-22T21:22:56.380Z,54.77
2019-03-22T21:25:26.835Z,57.40
2019-03-22T21:27:57.335Z,57.10
2019-03-22T21:30:27.914Z,58.60
2019-03-22T21:32:58.376Z,61.80
2019-03-22T21:35:36.875Z,58.93
2019-03-22T21:38:10.329Z,55.07
2019-03-22T21:40:33.003Z,66.03
2019-03-22T21:43:03.537Z,62.53
2019-03-22T21:45:34.074Z,62.13
2019-03-22T21:48:04.591Z,53.43
2019-03-22T21:50:35.060Z,60.70
2019-03-22T21:53:05.505Z,61.20
2019-03-22T21:55:36.173Z,57.37
2019-03-22T21:58:06.644Z,59.90
2019-03-22T22:00:37.119Z,58.03
2019-03-22T22:03:07.801Z,60.50
2019-03-22T22:05:47.395Z,65.63
2019-03-22T22:08:10.359Z,65.90
2019-03-22T22:10:42.786Z,66.47
2019-03-22T22:13:13.308Z,67.20
2019-03-22T22:15:43.759Z,58.23
2019-03-22T22:18:14.296Z,58.70
2019-03-22T22:20:44.830Z,59.60
2019-03-22T22:23:15.380Z,61.53
2019-03-22T22:25:45.803Z,67.97
2019-03-22T22:28:16.257Z,63.23
2019-03-22T22:30:46.724Z,53.70
2019-03-22T22:33:17.160Z,65.73
2019-03-22T22:35:57.968Z,59.77
2019-03-22T22:38:19.713Z,74.47
2019-03-22T22:40:50.250Z,59.07
2019-03-22T22:43:20.780Z,63.10
2019-03-22T22:45:51.235Z,59.53
2019-03-22T22:48:21.672Z,65.40
2019-03-22T22:50:52.221Z,56.27
2019-03-22T22:53:22.788Z,58.87
2019-03-22T22:55:53.275Z,55.77
2019-03-22T22:58:23.740Z,55.40
2019-03-22T23:00:54.270Z,59.87
2019-03-22T23:03:24.820Z,69.07
2019-03-22T23:05:55.302Z,62.07
2019-03-22T23:08:25.753Z,57.20
2019-03-22T23:10:56.203Z,54.33
2019-03-22T23:13:26.719Z,59.13
2019-03-22T23:15:57.175Z,78.07
2019-03-22T23:18:27.701Z,68.93
2019-03-22T23:20:58.181Z,56.40
2019-03-22T23:23:28.609Z,63.90
2019-03-22T23:25:59.059Z,65.60
2019-03-22T23:28:29.515Z,64.60
2019-03-22T23:31:00.234Z,64.87
2019-03-22T23:33:30.641Z,62.43
2019-03-22T23:36:01.097Z,56.00
2019-03-22T23:38:31.636Z,65.50
2019-03-22T23:41:02.090Z,63.87
2019-03-22T23:43:32.610Z,70.60
2019-03-22T23:46:03.060Z,59.33
2019-03-22T23:48:33.578Z,66.97
2019-03-22T23:51:04.094Z,67.47
2019-03-22T23:53:34.519Z,64.33
2019-03-22T23:56:05.014Z,71.10
2019-03-22T23:58:35.483Z,69.13
